Terminal Aerodrome Forecast
Issued by NWS Northern Indiana

Home | Current Version | Previous Version | Text Only | Print | Product List | Glossary On
Versions: 1 2 3 4 5 6 7 8 9 10 11 12 13
156
FTUS43 KIWX 221120
TAFFWA
TAF
KFWA 221120Z 2212/2312 08006KT P6SM BKN140
     FM221600 08012KT P6SM SCT140 BKN250=

USA.gov is the U.S. government's official web portal to all federal, state and local government web resources and services.